Airfield :
LOGIN :

Register | Disclaimer

   EN    FR    IT 

 










Legend :    VFR   Marginal VFR   IFR   Intensive IFR   Very Intensive IFR
Visi :
Ceiling :
>= 8 km
>= 3000ft
5 to 8 km
1000 to 3000 ft
1500m to 5 km
500 to 1000 ft
800 to 1500m
200 to 500 ft
< 800m
< 200 ft
Symbols :   Thunderstorms  Fog  Heavy snow  Heavy precipitations  Wind > 20 kt
SIGMETs :     Misc.  Thunderstorms  Icing  Turbulence  Mountain Waves  Volcanic Ashes







- Airport Elevation : 1247 ft
- IATA code : PRG


LKPR - Praha Ruzyne

CURRENT METAR :
  • 111330Z 27014KT 9999 -RA BKN018 OVC040 02/00 Q1013 NOSIG

EXPIRED METARs :
  • 111300Z 28017KT 9999 BKN019 OVC040 03/M00 Q1013 NOSIG
  • 111230Z 27016G26KT 9999 -RA BKN020 BKN040 03/00 Q1013 NOSIG
  • 111221Z 27016G26KT 9999 BKN020 OVC040 03/M00 Q1013 RMK REG QNH 1007
  • 111200Z 27018KT 9999 BKN020 OVC040 02/00 Q1013 NOSIG
  • 111147Z 26019KT 9999 BKN019 OVC040 02/00 Q1013 RMK REG QNH 1006
  • 111130Z 26017KT 9999 SCT018 OVC048 02/00 Q1012 NOSIG
  • 111100Z 26017KT 9999 SCT020 OVC046 02/00 Q1013 NOSIG
  • 111047Z 26017G27KT 9999 SCT018 OVC045 02/00 Q1013 RMK REG QNH 1006
  • 111030Z 27018KT 9999 -RASN BKN016 OVC034 02/M00 Q1013 NOSIG

TAF TAF LKPR
Valid from the 11 at 12:00 until the 12 at 18:00 UTC


111100Z 1112/1218 27012KT 9999 BKN025
TEMPO 1112/1118 30016G26KT 5000 -RASN BKN014
PROB30
TEMPO 1118/1204 2500 SN BKN005
No reported NOTAMs for that airfield.



MET'MAP, your aeronautical weather chart ! - Copyright ORBIFLY December 2007 - Disclaimer

ORBIFLY MET'MAP TEAM :

Programming & Development : Alexandra Zaïnal
Concept & Development : Baudouin d'Aumeries
Co-Development & Prog : Marc-Olivier Méhu
Technical & hardware support : Manuel Goepfert

Contact : metmap@orbifly.com




SOURCES & CREDITS :

   NOAA